Time,TemperatureF,DewpointF,PressureIn,WindDirection,WindDirectionDegrees,WindSpeedMPH,WindSpeedGustMPH,Humidity,HourlyPrecipIn,Conditions,Clouds,dailyrainin,SoftwareType,DateUTC
2013-07-15 01:02:00,70.0,69.0,-100.00,West,260,1.0,1.0,98,0.00,,,-99.99,,2013-07-15 05:02:00,
2013-07-15 01:12:00,70.0,69.0,-100.00,North,-999,-999.0,-999.0,98,0.00,,,-99.99,,2013-07-15 05:12:00,
2013-07-15 01:22:00,70.0,69.0,-100.00,WSW,255,1.0,1.0,98,0.00,,,-99.99,,2013-07-15 05:22:00,
2013-07-15 01:32:00,70.0,69.0,-100.00,WSW,255,1.0,1.0,98,0.00,,,-99.99,,2013-07-15 05:32:00,
2013-07-15 01:43:00,70.0,69.0,-100.00,WSW,255,1.0,1.0,98,0.00,,,-99.99,,2013-07-15 05:43:00,
2013-07-15 08:11:00,73.0,71.0,-100.00,WSW,240,1.0,4.0,91,0.00,,,-99.99,,2013-07-15 12:11:00,
2013-07-15 08:52:00,75.0,71.0,-100.00,WSW,240,2.0,4.0,87,0.00,,,-99.99,,2013-07-15 12:52:00,
2013-07-15 09:33:00,78.0,72.0,-100.00,SW,215,1.0,5.0,82,0.00,,,-99.99,,2013-07-15 13:33:00,
2013-07-15 10:02:00,80.0,72.0,-100.00,South,190,2.0,6.0,77,0.00,,,-99.99,,2013-07-15 14:02:00,
2013-07-15 10:11:00,81.0,74.0,-100.00,SW,230,1.0,6.0,77,0.00,,,-99.99,,2013-07-15 14:11:00,
2013-07-15 10:22:00,82.0,73.0,-100.00,NNE,20,1.0,7.0,74,0.00,,,-99.99,,2013-07-15 14:22:00,
2013-07-15 11:03:00,84.0,71.0,-100.00,ENE,70,2.0,5.0,63,0.00,,,-99.99,,2013-07-15 15:03:00,
2013-07-15 11:18:00,84.0,70.0,-100.00,ENE,65,2.0,8.0,63,0.00,,,-99.99,,2013-07-15 15:18:00,
2013-07-15 11:28:00,85.0,72.0,-100.00,ENE,75,3.0,8.0,64,0.00,,,-99.99,,2013-07-15 15:28:00,
2013-07-15 11:40:00,85.0,72.0,-100.00,ENE,75,3.0,8.0,64,0.00,,,-99.99,,2013-07-15 15:40:00,
2013-07-15 11:53:00,85.0,70.0,-100.00,West,260,2.0,6.0,61,0.00,,,-99.99,,2013-07-15 15:53:00,
2013-07-15 12:08:00,86.0,72.0,-100.00,West,260,1.0,6.0,65,0.00,,,-99.99,,2013-07-15 16:08:00,
2013-07-15 12:24:00,84.0,71.0,-100.00,East,90,1.0,5.0,65,0.00,,,-99.99,,2013-07-15 16:24:00,
2013-07-15 12:33:00,86.0,71.0,-100.00,SSW,210,4.0,7.0,61,0.00,,,-99.99,,2013-07-15 16:33:00,
2013-07-15 13:07:00,86.0,70.0,-100.00,WNW,295,3.0,7.0,59,0.00,,,-99.99,,2013-07-15 17:07:00,
2013-07-15 13:13:00,87.0,73.0,-100.00,WSW,245,1.0,6.0,64,0.00,,,-99.99,,2013-07-15 17:13:00,
2013-07-15 13:23:00,87.0,70.0,-100.00,North,-999,-999.0,-999.0,56,0.00,,,-99.99,,2013-07-15 17:23:00,
2013-07-15 13:56:00,87.0,72.0,-100.00,SSW,205,1.0,7.0,59,0.00,,,-99.99,,2013-07-15 17:56:00,
2013-07-15 14:07:00,88.0,71.0,-100.00,WNW,285,3.0,7.0,57,0.00,,,-99.99,,2013-07-15 18:07:00,
2013-07-15 14:18:00,89.0,71.0,-100.00,SSW,200,2.0,6.0,56,0.00,,,-99.99,,2013-07-15 18:18:00,
2013-07-15 14:28:00,89.0,71.0,-100.00,SSW,210,4.0,8.0,55,0.00,,,-99.99,,2013-07-15 18:28:00,
2013-07-15 15:47:00,89.0,68.0,-100.00,WSW,240,2.0,7.0,50,0.00,,,-99.99,,2013-07-15 19:47:00,
2013-07-15 16:29:00,89.0,66.0,-100.00,West,265,2.0,9.0,47,0.00,,,-99.99,,2013-07-15 20:29:00,
2013-07-15 16:37:00,89.0,67.0,-100.00,West,275,2.0,7.0,48,0.00,,,-99.99,,2013-07-15 20:37:00,
2013-07-15 16:43:00,88.0,65.0,-100.00,West,260,6.0,12.0,45,0.00,,,-99.99,,2013-07-15 20:43:00,
2013-07-15 17:12:00,88.0,65.0,-100.00,West,265,2.0,6.0,46,0.00,,,-99.99,,2013-07-15 21:12:00,
2013-07-15 17:23:00,88.0,65.0,-100.00,West,265,2.0,6.0,46,0.00,,,-99.99,,2013-07-15 21:23:00,
2013-07-15 19:06:00,82.0,71.0,-100.00,SW,230,0.0,4.0,70,0.00,,,-99.99,,2013-07-15 23:06:00,
2013-07-15 19:29:00,80.0,72.0,-100.00,SW,215,1.0,2.0,76,0.00,,,-99.99,,2013-07-15 23:29:00,
2013-07-15 20:03:00,78.0,71.0,-100.00,NE,45,0.0,0.0,80,0.00,,,-99.99,,2013-07-16 00:03:00,
2013-07-15 20:16:00,77.0,71.0,-100.00,SSW,195,0.0,1.0,80,0.00,,,-99.99,,2013-07-16 00:16:00,
2013-07-15 20:27:00,77.0,70.0,-100.00,SSW,195,0.0,1.0,79,0.00,,,-99.99,,2013-07-16 00:27:00,
2013-07-15 20:48:00,76.0,69.0,-100.00,West,270,0.0,1.0,78,0.00,,,-99.99,,2013-07-16 00:48:00,
2013-07-15 21:49:00,75.0,68.0,-100.00,WSW,250,1.0,1.0,80,0.00,,,-99.99,,2013-07-16 01:49:00,
2013-07-15 22:11:00,75.0,68.0,-100.00,SW,235,1.0,2.0,80,0.00,,,-99.99,,2013-07-16 02:11:00,
2013-07-15 22:54:00,75.0,69.0,-100.00,West,280,1.0,3.0,81,0.00,,,-99.99,,2013-07-16 02:54:00,
2013-07-15 23:17:00,76.0,69.0,-100.00,ESE,105,1.0,3.0,78,0.00,,,-99.99,,2013-07-16 03:17:00,
2013-07-15 23:29:00,77.0,67.0,-100.00,ENE,75,1.0,4.0,73,0.00,,,-99.99,,2013-07-16 03:29:00,